sensor_id;sensor_type;location;lat;lon;timestamp;P1;durP1;ratioP1;P2;durP2;ratioP2
10657;SDS011;5377;43.276;26.930;2022-07-23T00:01:35;11.75;;;7.90;;
10657;SDS011;5377;43.276;26.930;2022-07-23T00:04:02;14.25;;;8.10;;
10657;SDS011;5377;43.276;26.930;2022-07-23T00:06:31;16.92;;;8.70;;
10657;SDS011;5377;43.276;26.930;2022-07-23T00:08:57;15.13;;;8.63;;
10657;SDS011;5377;43.276;26.930;2022-07-23T00:11:24;16.45;;;7.95;;
10657;SDS011;5377;43.276;26.930;2022-07-23T00:13:51;12.65;;;8.35;;
10657;SDS011;5377;43.276;26.930;2022-07-23T00:16:20;15.45;;;8.48;;
10657;SDS011;5377;43.276;26.930;2022-07-23T00:18:46;21.58;;;13.10;;
10657;SDS011;5377;43.276;26.930;2022-07-23T00:21:13;21.02;;;11.23;;
10657;SDS011;5377;43.276;26.930;2022-07-23T00:23:41;18.13;;;8.98;;
10657;SDS011;5377;43.276;26.930;2022-07-23T00:26:08;15.77;;;9.63;;
10657;SDS011;5377;43.276;26.930;2022-07-23T00:28:35;18.33;;;9.43;;
10657;SDS011;5377;43.276;26.930;2022-07-23T00:31:02;13.77;;;8.15;;
10657;SDS011;5377;43.276;26.930;2022-07-23T00:33:29;10.55;;;7.38;;
10657;SDS011;5377;43.276;26.930;2022-07-23T00:35:56;12.30;;;6.70;;
10657;SDS011;5377;43.276;26.930;2022-07-23T00:38:22;14.45;;;7.40;;
10657;SDS011;5377;43.276;26.930;2022-07-23T00:40:51;12.98;;;6.50;;
10657;SDS011;5377;43.276;26.930;2022-07-23T00:43:19;12.85;;;5.28;;
10657;SDS011;5377;43.276;26.930;2022-07-23T00:45:46;10.15;;;4.60;;
10657;SDS011;5377;43.276;26.930;2022-07-23T00:48:13;10.50;;;5.90;;
10657;SDS011;5377;43.276;26.930;2022-07-23T00:50:40;11.85;;;5.95;;
10657;SDS011;5377;43.276;26.930;2022-07-23T00:53:07;16.95;;;10.55;;
10657;SDS011;5377;43.276;26.930;2022-07-23T00:55:34;20.45;;;12.77;;
10657;SDS011;5377;43.276;26.930;2022-07-23T00:58:02;11.63;;;9.15;;
10657;SDS011;5377;43.276;26.930;2022-07-23T01:00:30;11.60;;;9.13;;
10657;SDS011;5377;43.276;26.930;2022-07-23T01:02:57;11.75;;;7.15;;
10657;SDS011;5377;43.276;26.930;2022-07-23T01:05:24;12.30;;;8.00;;
10657;SDS011;5377;43.276;26.930;2022-07-23T01:07:51;11.63;;;7.35;;
10657;SDS011;5377;43.276;26.930;2022-07-23T01:10:18;13.82;;;7.28;;
10657;SDS011;5377;43.276;26.930;2022-07-23T01:12:57;12.98;;;5.88;;
10657;SDS011;5377;43.276;26.930;2022-07-23T01:15:26;14.63;;;6.35;;
10657;SDS011;5377;43.276;26.930;2022-07-23T01:17:53;9.98;;;6.43;;
10657;SDS011;5377;43.276;26.930;2022-07-23T01:20:20;11.00;;;5.25;;
10657;SDS011;5377;43.276;26.930;2022-07-23T01:22:48;6.75;;;4.60;;
10657;SDS011;5377;43.276;26.930;2022-07-23T01:25:16;12.30;;;5.60;;
10657;SDS011;5377;43.276;26.930;2022-07-23T01:27:43;12.95;;;5.47;;
10657;SDS011;5377;43.276;26.930;2022-07-23T01:30:10;15.40;;;5.57;;
10657;SDS011;5377;43.276;26.930;2022-07-23T01:32:38;6.85;;;4.60;;
10657;SDS011;5377;43.276;26.930;2022-07-23T01:35:05;6.72;;;3.85;;
10657;SDS011;5377;43.276;26.930;2022-07-23T01:37:33;5.47;;;3.53;;
10657;SDS011;5377;43.276;26.930;2022-07-23T01:40:01;5.65;;;3.83;;
10657;SDS011;5377;43.276;26.930;2022-07-23T01:42:29;7.82;;;5.07;;
10657;SDS011;5377;43.276;26.930;2022-07-23T01:44:56;11.18;;;5.35;;
10657;SDS011;5377;43.276;26.930;2022-07-23T01:47:23;11.95;;;6.13;;
10657;SDS011;5377;43.276;26.930;2022-07-23T01:49:50;10.45;;;6.28;;
10657;SDS011;5377;43.276;26.930;2022-07-23T01:52:16;9.45;;;6.30;;
10657;SDS011;5377;43.276;26.930;2022-07-23T01:54:43;8.10;;;5.20;;
10657;SDS011;5377;43.276;26.930;2022-07-23T01:57:11;5.65;;;3.80;;
10657;SDS011;5377;43.276;26.930;2022-07-23T01:59:38;9.80;;;5.28;;
10657;SDS011;5377;43.276;26.930;2022-07-23T02:02:05;9.55;;;4.60;;
10657;SDS011;5377;43.276;26.930;2022-07-23T02:04:32;15.02;;;7.65;;
10657;SDS011;5377;43.276;26.930;2022-07-23T02:07:01;12.00;;;6.05;;
10657;SDS011;5377;43.276;26.930;2022-07-23T02:09:29;11.10;;;6.57;;
10657;SDS011;5377;43.276;26.930;2022-07-23T02:11:56;11.50;;;5.70;;
10657;SDS011;5377;43.276;26.930;2022-07-23T02:14:24;7.43;;;5.60;;
10657;SDS011;5377;43.276;26.930;2022-07-23T02:16:51;11.40;;;4.93;;
10657;SDS011;5377;43.276;26.930;2022-07-23T02:19:18;8.23;;;5.35;;
10657;SDS011;5377;43.276;26.930;2022-07-23T02:21:45;10.07;;;4.03;;
10657;SDS011;5377;43.276;26.930;2022-07-23T02:24:12;7.30;;;3.58;;
10657;SDS011;5377;43.276;26.930;2022-07-23T02:26:39;3.75;;;2.40;;
10657;SDS011;5377;43.276;26.930;2022-07-23T02:29:06;7.47;;;3.70;;
10657;SDS011;5377;43.276;26.930;2022-07-23T02:31:34;2.85;;;2.05;;
10657;SDS011;5377;43.276;26.930;2022-07-23T02:34:01;7.03;;;2.70;;
10657;SDS011;5377;43.276;26.930;2022-07-23T02:36:28;5.55;;;3.80;;
10657;SDS011;5377;43.276;26.930;2022-07-23T02:38:55;9.50;;;4.85;;
10657;SDS011;5377;43.276;26.930;2022-07-23T02:41:22;6.43;;;5.03;;
10657;SDS011;5377;43.276;26.930;2022-07-23T02:43:49;6.88;;;4.75;;
10657;SDS011;5377;43.276;26.930;2022-07-23T02:46:16;8.75;;;4.00;;
10657;SDS011;5377;43.276;26.930;2022-07-23T02:48:44;10.23;;;5.00;;
10657;SDS011;5377;43.276;26.930;2022-07-23T02:51:11;10.25;;;5.15;;
10657;SDS011;5377;43.276;26.930;2022-07-23T02:53:38;8.05;;;4.93;;
10657;SDS011;5377;43.276;26.930;2022-07-23T02:56:05;12.65;;;4.85;;
10657;SDS011;5377;43.276;26.930;2022-07-23T02:58:32;11.05;;;5.60;;
10657;SDS011;5377;43.276;26.930;2022-07-23T03:00:59;17.88;;;6.60;;
10657;SDS011;5377;43.276;26.930;2022-07-23T03:03:26;14.07;;;5.47;;
10657;SDS011;5377;43.276;26.930;2022-07-23T03:05:54;10.50;;;3.45;;
10657;SDS011;5377;43.276;26.930;2022-07-23T03:08:21;7.22;;;4.13;;
10657;SDS011;5377;43.276;26.930;2022-07-23T03:10:48;7.03;;;3.42;;
10657;SDS011;5377;43.276;26.930;2022-07-23T03:13:14;10.45;;;4.53;;
10657;SDS011;5377;43.276;26.930;2022-07-23T03:15:42;6.82;;;3.88;;
10657;SDS011;5377;43.276;26.930;2022-07-23T03:18:08;10.02;;;3.70;;
10657;SDS011;5377;43.276;26.930;2022-07-23T03:20:35;8.23;;;4.28;;
10657;SDS011;5377;43.276;26.930;2022-07-23T03:23:03;15.18;;;4.40;;
10657;SDS011;5377;43.276;26.930;2022-07-23T03:25:30;9.95;;;3.80;;
10657;SDS011;5377;43.276;26.930;2022-07-23T03:27:57;10.30;;;4.07;;
10657;SDS011;5377;43.276;26.930;2022-07-23T03:30:24;11.50;;;4.00;;
10657;SDS011;5377;43.276;26.930;2022-07-23T03:32:51;10.77;;;4.25;;
10657;SDS011;5377;43.276;26.930;2022-07-23T03:35:18;9.75;;;5.22;;
10657;SDS011;5377;43.276;26.930;2022-07-23T03:37:44;7.93;;;4.50;;
10657;SDS011;5377;43.276;26.930;2022-07-23T03:40:13;9.85;;;3.60;;
10657;SDS011;5377;43.276;26.930;2022-07-23T03:42:40;7.97;;;4.10;;
10657;SDS011;5377;43.276;26.930;2022-07-23T03:45:07;14.52;;;4.55;;
10657;SDS011;5377;43.276;26.930;2022-07-23T03:47:35;10.57;;;3.63;;
10657;SDS011;5377;43.276;26.930;2022-07-23T03:50:02;6.63;;;3.88;;
10657;SDS011;5377;43.276;26.930;2022-07-23T03:52:29;13.38;;;4.45;;
10657;SDS011;5377;43.276;26.930;2022-07-23T03:54:56;9.63;;;3.90;;
10657;SDS011;5377;43.276;26.930;2022-07-23T03:57:24;8.48;;;5.00;;
10657;SDS011;5377;43.276;26.930;2022-07-23T03:59:51;18.38;;;5.32;;
10657;SDS011;5377;43.276;26.930;2022-07-23T04:02:18;13.88;;;4.45;;
10657;SDS011;5377;43.276;26.930;2022-07-23T04:04:45;10.75;;;4.95;;
10657;SDS011;5377;43.276;26.930;2022-07-23T04:07:12;7.85;;;4.63;;
10657;SDS011;5377;43.276;26.930;2022-07-23T04:09:39;6.45;;;4.30;;
10657;SDS011;5377;43.276;26.930;2022-07-23T04:12:07;10.10;;;4.18;;
10657;SDS011;5377;43.276;26.930;2022-07-23T04:14:35;7.70;;;4.03;;
10657;SDS011;5377;43.276;26.930;2022-07-23T04:17:02;8.32;;;4.05;;
10657;SDS011;5377;43.276;26.930;2022-07-23T04:19:29;8.75;;;4.50;;
10657;SDS011;5377;43.276;26.930;2022-07-23T04:21:56;13.38;;;4.63;;
10657;SDS011;5377;43.276;26.930;2022-07-23T04:24:23;7.45;;;4.28;;
10657;SDS011;5377;43.276;26.930;2022-07-23T04:26:50;8.85;;;4.35;;
10657;SDS011;5377;43.276;26.930;2022-07-23T04:29:18;12.50;;;4.85;;
10657;SDS011;5377;43.276;26.930;2022-07-23T04:31:46;7.82;;;4.47;;
10657;SDS011;5377;43.276;26.930;2022-07-23T04:34:13;7.00;;;3.83;;
10657;SDS011;5377;43.276;26.930;2022-07-23T04:36:40;14.52;;;6.47;;
10657;SDS011;5377;43.276;26.930;2022-07-23T04:39:07;6.85;;;4.35;;
10657;SDS011;5377;43.276;26.930;2022-07-23T04:41:34;9.68;;;4.50;;
10657;SDS011;5377;43.276;26.930;2022-07-23T04:44:01;10.63;;;4.75;;
10657;SDS011;5377;43.276;26.930;2022-07-23T04:46:29;8.65;;;5.57;;
10657;SDS011;5377;43.276;26.930;2022-07-23T04:48:57;8.90;;;5.15;;
10657;SDS011;5377;43.276;26.930;2022-07-23T04:51:24;5.63;;;4.35;;
10657;SDS011;5377;43.276;26.930;2022-07-23T04:53:51;10.88;;;4.53;;
10657;SDS011;5377;43.276;26.930;2022-07-23T04:56:18;10.13;;;4.68;;
10657;SDS011;5377;43.276;26.930;2022-07-23T04:58:45;10.90;;;4.43;;
10657;SDS011;5377;43.276;26.930;2022-07-23T05:01:11;7.82;;;4.28;;
10657;SDS011;5377;43.276;26.930;2022-07-23T05:03:38;9.95;;;4.22;;
10657;SDS011;5377;43.276;26.930;2022-07-23T05:06:07;6.57;;;3.70;;
10657;SDS011;5377;43.276;26.930;2022-07-23T05:08:34;7.45;;;3.65;;
10657;SDS011;5377;43.276;26.930;2022-07-23T05:11:01;9.55;;;3.75;;
10657;SDS011;5377;43.276;26.930;2022-07-23T05:13:28;6.45;;;3.67;;
10657;SDS011;5377;43.276;26.930;2022-07-23T05:15:55;11.80;;;3.97;;
10657;SDS011;5377;43.276;26.930;2022-07-23T05:18:22;9.63;;;4.28;;
10657;SDS011;5377;43.276;26.930;2022-07-23T05:20:48;7.15;;;3.42;;
10657;SDS011;5377;43.276;26.930;2022-07-23T05:23:17;5.70;;;3.20;;
10657;SDS011;5377;43.276;26.930;2022-07-23T05:25:44;12.25;;;4.55;;
10657;SDS011;5377;43.276;26.930;2022-07-23T05:28:11;12.07;;;4.70;;
10657;SDS011;5377;43.276;26.930;2022-07-23T05:30:37;5.40;;;3.35;;
10657;SDS011;5377;43.276;26.930;2022-07-23T05:33:04;7.07;;;3.72;;
10657;SDS011;5377;43.276;26.930;2022-07-23T05:35:32;9.77;;;3.78;;
10657;SDS011;5377;43.276;26.930;2022-07-23T05:37:59;8.88;;;4.45;;
10657;SDS011;5377;43.276;26.930;2022-07-23T05:40:28;9.73;;;4.60;;
10657;SDS011;5377;43.276;26.930;2022-07-23T05:42:55;6.88;;;4.55;;
10657;SDS011;5377;43.276;26.930;2022-07-23T05:45:21;6.97;;;4.60;;
10657;SDS011;5377;43.276;26.930;2022-07-23T05:47:48;18.23;;;5.32;;
10657;SDS011;5377;43.276;26.930;2022-07-23T05:50:16;7.65;;;4.32;;
10657;SDS011;5377;43.276;26.930;2022-07-23T05:52:43;11.55;;;4.90;;
10657;SDS011;5377;43.276;26.930;2022-07-23T05:55:11;10.88;;;3.97;;
10657;SDS011;5377;43.276;26.930;2022-07-23T05:57:40;15.02;;;7.47;;
10657;SDS011;5377;43.276;26.930;2022-07-23T06:00:10;8.57;;;6.80;;
10657;SDS011;5377;43.276;26.930;2022-07-23T06:02:37;11.35;;;4.78;;
10657;SDS011;5377;43.276;26.930;2022-07-23T06:05:05;14.60;;;6.57;;
10657;SDS011;5377;43.276;26.930;2022-07-23T06:07:34;10.45;;;5.15;;
10657;SDS011;5377;43.276;26.930;2022-07-23T06:10:01;11.23;;;4.13;;
10657;SDS011;5377;43.276;26.930;2022-07-23T06:12:29;8.13;;;4.25;;
10657;SDS011;5377;43.276;26.930;2022-07-23T06:14:57;10.85;;;4.70;;
10657;SDS011;5377;43.276;26.930;2022-07-23T06:17:24;4.22;;;3.80;;
10657;SDS011;5377;43.276;26.930;2022-07-23T06:19:51;9.98;;;4.85;;
10657;SDS011;5377;43.276;26.930;2022-07-23T06:22:18;10.75;;;4.95;;
10657;SDS011;5377;43.276;26.930;2022-07-23T06:24:46;12.07;;;4.97;;
10657;SDS011;5377;43.276;26.930;2022-07-23T06:27:13;7.75;;;4.40;;
10657;SDS011;5377;43.276;26.930;2022-07-23T06:29:40;9.90;;;5.47;;
10657;SDS011;5377;43.276;26.930;2022-07-23T06:32:08;11.90;;;4.38;;
10657;SDS011;5377;43.276;26.930;2022-07-23T06:34:35;6.63;;;3.83;;
10657;SDS011;5377;43.276;26.930;2022-07-23T06:37:02;10.65;;;4.55;;
10657;SDS011;5377;43.276;26.930;2022-07-23T06:39:29;9.23;;;3.92;;
10657;SDS011;5377;43.276;26.930;2022-07-23T06:41:55;19.73;;;4.65;;
10657;SDS011;5377;43.276;26.930;2022-07-23T06:44:22;11.45;;;5.22;;
10657;SDS011;5377;43.276;26.930;2022-07-23T06:46:49;5.05;;;4.00;;
10657;SDS011;5377;43.276;26.930;2022-07-23T06:49:17;11.88;;;4.10;;
10657;SDS011;5377;43.276;26.930;2022-07-23T06:51:44;10.82;;;4.55;;
10657;SDS011;5377;43.276;26.930;2022-07-23T06:54:11;9.82;;;4.07;;
10657;SDS011;5377;43.276;26.930;2022-07-23T06:56:38;7.90;;;3.10;;
10657;SDS011;5377;43.276;26.930;2022-07-23T06:59:05;10.93;;;3.80;;
10657;SDS011;5377;43.276;26.930;2022-07-23T07:01:32;7.68;;;3.42;;
10657;SDS011;5377;43.276;26.930;2022-07-23T07:03:58;10.68;;;3.55;;
10657;SDS011;5377;43.276;26.930;2022-07-23T07:06:27;11.45;;;5.10;;
10657;SDS011;5377;43.276;26.930;2022-07-23T07:08:54;11.45;;;4.10;;
10657;SDS011;5377;43.276;26.930;2022-07-23T07:11:21;7.55;;;4.18;;
10657;SDS011;5377;43.276;26.930;2022-07-23T07:13:48;7.10;;;3.47;;
10657;SDS011;5377;43.276;26.930;2022-07-23T07:16:15;8.50;;;3.38;;
10657;SDS011;5377;43.276;26.930;2022-07-23T07:18:42;9.70;;;3.63;;
10657;SDS011;5377;43.276;26.930;2022-07-23T07:21:09;7.22;;;4.35;;
10657;SDS011;5377;43.276;26.930;2022-07-23T07:23:38;15.10;;;6.30;;
10657;SDS011;5377;43.276;26.930;2022-07-23T07:26:05;7.28;;;4.05;;
10657;SDS011;5377;43.276;26.930;2022-07-23T07:28:31;10.27;;;4.57;;
10657;SDS011;5377;43.276;26.930;2022-07-23T07:30:58;9.35;;;3.65;;
10657;SDS011;5377;43.276;26.930;2022-07-23T07:33:25;10.60;;;3.10;;
10657;SDS011;5377;43.276;26.930;2022-07-23T07:35:52;11.98;;;6.95;;
10657;SDS011;5377;43.276;26.930;2022-07-23T07:38:19;3.15;;;2.85;;
10657;SDS011;5377;43.276;26.930;2022-07-23T07:40:47;6.10;;;3.42;;
10657;SDS011;5377;43.276;26.930;2022-07-23T07:43:14;6.35;;;2.38;;
10657;SDS011;5377;43.276;26.930;2022-07-23T07:45:41;6.03;;;2.80;;
10657;SDS011;5377;43.276;26.930;2022-07-23T07:48:08;6.13;;;2.70;;
10657;SDS011;5377;43.276;26.930;2022-07-23T07:50:35;2.53;;;2.20;;
10657;SDS011;5377;43.276;26.930;2022-07-23T07:53:02;7.15;;;2.97;;
10657;SDS011;5377;43.276;26.930;2022-07-23T07:55:29;5.88;;;2.17;;
10657;SDS011;5377;43.276;26.930;2022-07-23T07:57:57;5.20;;;2.25;;
10657;SDS011;5377;43.276;26.930;2022-07-23T08:00:24;3.88;;;2.35;;
10657;SDS011;5377;43.276;26.930;2022-07-23T08:02:52;5.00;;;1.80;;
10657;SDS011;5377;43.276;26.930;2022-07-23T08:05:21;5.45;;;2.40;;
10657;SDS011;5377;43.276;26.930;2022-07-23T08:07:50;4.38;;;2.17;;
10657;SDS011;5377;43.276;26.930;2022-07-23T08:10:18;2.28;;;1.13;;
10657;SDS011;5377;43.276;26.930;2022-07-23T08:12:46;4.78;;;1.73;;
10657;SDS011;5377;43.276;26.930;2022-07-23T08:15:16;6.30;;;2.20;;
10657;SDS011;5377;43.276;26.930;2022-07-23T08:17:45;5.30;;;2.20;;
10657;SDS011;5377;43.276;26.930;2022-07-23T08:20:13;4.88;;;2.10;;
10657;SDS011;5377;43.276;26.930;2022-07-23T08:22:43;3.67;;;1.80;;
10657;SDS011;5377;43.276;26.930;2022-07-23T08:25:15;5.95;;;2.13;;
10657;SDS011;5377;43.276;26.930;2022-07-23T08:27:42;5.05;;;2.00;;
10657;SDS011;5377;43.276;26.930;2022-07-23T08:30:10;5.65;;;1.58;;
10657;SDS011;5377;43.276;26.930;2022-07-23T08:32:51;6.45;;;2.03;;
10657;SDS011;5377;43.276;26.930;2022-07-23T08:35:26;12.80;;;2.42;;
10657;SDS011;5377;43.276;26.930;2022-07-23T08:37:55;3.70;;;1.98;;
10657;SDS011;5377;43.276;26.930;2022-07-23T08:40:22;4.53;;;2.22;;
10657;SDS011;5377;43.276;26.930;2022-07-23T08:42:51;6.32;;;1.90;;
10657;SDS011;5377;43.276;26.930;2022-07-23T08:45:19;3.80;;;2.00;;
10657;SDS011;5377;43.276;26.930;2022-07-23T08:47:48;5.47;;;2.75;;
10657;SDS011;5377;43.276;26.930;2022-07-23T08:50:18;2.70;;;1.70;;
10657;SDS011;5377;43.276;26.930;2022-07-23T08:52:46;4.07;;;1.58;;
10657;SDS011;5377;43.276;26.930;2022-07-23T08:55:15;2.83;;;2.22;;
10657;SDS011;5377;43.276;26.930;2022-07-23T08:57:42;8.95;;;2.08;;
10657;SDS011;5377;43.276;26.930;2022-07-23T09:00:10;3.00;;;1.30;;
10657;SDS011;5377;43.276;26.930;2022-07-23T09:02:40;3.00;;;2.03;;
10657;SDS011;5377;43.276;26.930;2022-07-23T09:05:10;3.30;;;2.22;;
10657;SDS011;5377;43.276;26.930;2022-07-23T09:07:38;5.32;;;1.92;;
10657;SDS011;5377;43.276;26.930;2022-07-23T09:10:45;3.28;;;1.88;;
10657;SDS011;5377;43.276;26.930;2022-07-23T09:13:23;6.30;;;2.78;;
10657;SDS011;5377;43.276;26.930;2022-07-23T09:15:55;5.60;;;1.92;;
10657;SDS011;5377;43.276;26.930;2022-07-23T09:18:37;4.43;;;2.20;;
10657;SDS011;5377;43.276;26.930;2022-07-23T09:21:08;5.22;;;2.10;;
10657;SDS011;5377;43.276;26.930;2022-07-23T09:23:41;3.58;;;1.73;;
10657;SDS011;5377;43.276;26.930;2022-07-23T09:26:20;2.63;;;2.00;;
10657;SDS011;5377;43.276;26.930;2022-07-23T09:29:09;5.75;;;1.92;;
10657;SDS011;5377;43.276;26.930;2022-07-23T09:31:42;7.82;;;3.80;;
10657;SDS011;5377;43.276;26.930;2022-07-23T09:34:17;3.22;;;2.60;;
10657;SDS011;5377;43.276;26.930;2022-07-23T09:36:46;6.45;;;2.45;;
10657;SDS011;5377;43.276;26.930;2022-07-23T09:39:14;5.20;;;2.10;;
10657;SDS011;5377;43.276;26.930;2022-07-23T09:41:43;6.30;;;2.83;;
10657;SDS011;5377;43.276;26.930;2022-07-23T09:44:12;8.45;;;2.67;;
10657;SDS011;5377;43.276;26.930;2022-07-23T09:46:41;3.22;;;2.40;;
10657;SDS011;5377;43.276;26.930;2022-07-23T09:49:16;3.03;;;2.25;;
10657;SDS011;5377;43.276;26.930;2022-07-23T09:51:49;6.25;;;2.33;;
10657;SDS011;5377;43.276;26.930;2022-07-23T09:54:23;4.03;;;3.60;;
10657;SDS011;5377;43.276;26.930;2022-07-23T09:56:53;5.68;;;2.45;;
10657;SDS011;5377;43.276;26.930;2022-07-23T09:59:22;5.05;;;2.08;;
10657;SDS011;5377;43.276;26.930;2022-07-23T10:01:51;4.28;;;2.72;;
10657;SDS011;5377;43.276;26.930;2022-07-23T10:04:20;2.63;;;2.40;;
10657;SDS011;5377;43.276;26.930;2022-07-23T10:06:49;3.75;;;2.63;;
10657;SDS011;5377;43.276;26.930;2022-07-23T10:09:21;2.58;;;2.38;;
10657;SDS011;5377;43.276;26.930;2022-07-23T10:11:50;7.80;;;3.42;;
10657;SDS011;5377;43.276;26.930;2022-07-23T10:14:22;3.95;;;2.67;;
10657;SDS011;5377;43.276;26.930;2022-07-23T10:16:50;4.97;;;2.80;;
10657;SDS011;5377;43.276;26.930;2022-07-23T10:19:17;3.33;;;2.70;;
10657;SDS011;5377;43.276;26.930;2022-07-23T10:21:46;2.63;;;2.42;;
10657;SDS011;5377;43.276;26.930;2022-07-23T10:24:21;4.80;;;2.80;;
10657;SDS011;5377;43.276;26.930;2022-07-23T10:26:58;8.75;;;3.08;;
10657;SDS011;5377;43.276;26.930;2022-07-23T10:29:42;3.72;;;2.92;;
10657;SDS011;5377;43.276;26.930;2022-07-23T10:32:17;5.35;;;2.50;;
10657;SDS011;5377;43.276;26.930;2022-07-23T10:34:54;5.07;;;2.72;;
10657;SDS011;5377;43.276;26.930;2022-07-23T10:37:32;3.55;;;3.13;;
10657;SDS011;5377;43.276;26.930;2022-07-23T10:40:08;4.05;;;2.65;;
10657;SDS011;5377;43.276;26.930;2022-07-23T10:42:37;5.35;;;2.50;;
10657;SDS011;5377;43.276;26.930;2022-07-23T10:45:25;5.35;;;2.85;;
10657;SDS011;5377;43.276;26.930;2022-07-23T10:47:53;4.40;;;2.85;;
10657;SDS011;5377;43.276;26.930;2022-07-23T10:50:21;4.15;;;2.75;;
10657;SDS011;5377;43.276;26.930;2022-07-23T10:53:09;5.15;;;2.47;;
10657;SDS011;5377;43.276;26.930;2022-07-23T10:55:51;4.95;;;2.75;;
10657;SDS011;5377;43.276;26.930;2022-07-23T10:58:19;3.88;;;2.40;;
10657;SDS011;5377;43.276;26.930;2022-07-23T11:00:48;4.78;;;3.00;;
10657;SDS011;5377;43.276;26.930;2022-07-23T11:03:27;3.40;;;2.45;;
10657;SDS011;5377;43.276;26.930;2022-07-23T11:05:57;4.32;;;2.30;;
10657;SDS011;5377;43.276;26.930;2022-07-23T11:08:25;4.07;;;2.50;;
10657;SDS011;5377;43.276;26.930;2022-07-23T11:10:53;7.88;;;2.95;;
10657;SDS011;5377;43.276;26.930;2022-07-23T11:16:25;3.40;;;2.88;;
10657;SDS011;5377;43.276;26.930;2022-07-23T11:24:26;5.10;;;2.70;;
10657;SDS011;5377;43.276;26.930;2022-07-23T11:35:23;3.83;;;2.92;;
10657;SDS011;5377;43.276;26.930;2022-07-23T11:37:53;5.40;;;2.83;;
10657;SDS011;5377;43.276;26.930;2022-07-23T11:40:25;7.57;;;2.80;;
10657;SDS011;5377;43.276;26.930;2022-07-23T11:42:54;3.00;;;2.78;;
10657;SDS011;5377;43.276;26.930;2022-07-23T11:45:23;4.68;;;2.90;;
10657;SDS011;5377;43.276;26.930;2022-07-23T11:47:50;7.28;;;3.25;;
10657;SDS011;5377;43.276;26.930;2022-07-23T11:50:17;5.50;;;2.80;;
10657;SDS011;5377;43.276;26.930;2022-07-23T11:52:44;4.63;;;2.65;;
10657;SDS011;5377;43.276;26.930;2022-07-23T11:55:11;5.00;;;2.75;;
10657;SDS011;5377;43.276;26.930;2022-07-23T11:57:42;5.10;;;2.92;;
10657;SDS011;5377;43.276;26.930;2022-07-23T12:00:10;7.68;;;3.25;;
10657;SDS011;5377;43.276;26.930;2022-07-23T12:02:39;6.68;;;3.53;;
10657;SDS011;5377;43.276;26.930;2022-07-23T12:05:09;6.43;;;3.30;;
10657;SDS011;5377;43.276;26.930;2022-07-23T12:07:38;4.72;;;3.30;;
10657;SDS011;5377;43.276;26.930;2022-07-23T12:10:12;7.35;;;3.00;;
10657;SDS011;5377;43.276;26.930;2022-07-23T12:12:41;4.85;;;3.25;;
10657;SDS011;5377;43.276;26.930;2022-07-23T12:15:11;4.20;;;3.13;;
10657;SDS011;5377;43.276;26.930;2022-07-23T12:17:40;7.40;;;3.38;;
10657;SDS011;5377;43.276;26.930;2022-07-23T12:20:09;6.78;;;3.33;;
10657;SDS011;5377;43.276;26.930;2022-07-23T12:22:39;2.88;;;2.67;;
10657;SDS011;5377;43.276;26.930;2022-07-23T12:25:09;3.70;;;3.10;;
10657;SDS011;5377;43.276;26.930;2022-07-23T12:27:37;6.65;;;3.30;;
10657;SDS011;5377;43.276;26.930;2022-07-23T12:30:25;4.55;;;2.90;;
10657;SDS011;5377;43.276;26.930;2022-07-23T12:32:55;3.85;;;3.35;;
10657;SDS011;5377;43.276;26.930;2022-07-23T12:35:30;5.13;;;3.35;;
10657;SDS011;5377;43.276;26.930;2022-07-23T12:37:59;6.25;;;2.80;;
10657;SDS011;5377;43.276;26.930;2022-07-23T12:40:28;7.75;;;2.88;;
10657;SDS011;5377;43.276;26.930;2022-07-23T12:42:58;3.75;;;3.13;;
10657;SDS011;5377;43.276;26.930;2022-07-23T12:45:28;6.22;;;3.38;;
10657;SDS011;5377;43.276;26.930;2022-07-23T12:48:08;8.05;;;3.35;;
10657;SDS011;5377;43.276;26.930;2022-07-23T12:50:43;6.88;;;3.63;;
10657;SDS011;5377;43.276;26.930;2022-07-23T12:53:15;8.30;;;4.80;;
10657;SDS011;5377;43.276;26.930;2022-07-23T12:55:43;7.30;;;3.50;;
10657;SDS011;5377;43.276;26.930;2022-07-23T12:58:12;7.10;;;3.67;;
10657;SDS011;5377;43.276;26.930;2022-07-23T13:03:36;4.07;;;3.25;;
10657;SDS011;5377;43.276;26.930;2022-07-23T13:06:05;4.43;;;3.33;;
10657;SDS011;5377;43.276;26.930;2022-07-23T13:08:34;8.45;;;3.60;;
10657;SDS011;5377;43.276;26.930;2022-07-23T13:11:02;5.07;;;3.15;;
10657;SDS011;5377;43.276;26.930;2022-07-23T13:13:30;3.83;;;3.03;;
10657;SDS011;5377;43.276;26.930;2022-07-23T13:15:58;8.10;;;3.45;;
10657;SDS011;5377;43.276;26.930;2022-07-23T13:18:27;4.72;;;4.38;;
10657;SDS011;5377;43.276;26.930;2022-07-23T13:20:54;4.28;;;2.70;;
10657;SDS011;5377;43.276;26.930;2022-07-23T13:23:22;3.30;;;3.03;;
10657;SDS011;5377;43.276;26.930;2022-07-23T13:25:49;4.75;;;3.33;;
10657;SDS011;5377;43.276;26.930;2022-07-23T13:28:16;4.25;;;3.42;;
10657;SDS011;5377;43.276;26.930;2022-07-23T13:30:44;5.53;;;3.53;;
10657;SDS011;5377;43.276;26.930;2022-07-23T13:33:12;4.82;;;2.78;;
10657;SDS011;5377;43.276;26.930;2022-07-23T13:35:41;9.48;;;2.78;;
10657;SDS011;5377;43.276;26.930;2022-07-23T13:38:08;6.68;;;3.85;;
10657;SDS011;5377;43.276;26.930;2022-07-23T13:40:35;4.03;;;3.17;;
10657;SDS011;5377;43.276;26.930;2022-07-23T13:43:05;10.65;;;5.05;;
10657;SDS011;5377;43.276;26.930;2022-07-23T13:45:32;8.93;;;3.65;;
10657;SDS011;5377;43.276;26.930;2022-07-23T13:47:59;7.57;;;3.50;;
10657;SDS011;5377;43.276;26.930;2022-07-23T13:50:26;4.05;;;3.13;;
10657;SDS011;5377;43.276;26.930;2022-07-23T13:52:55;6.65;;;3.25;;
10657;SDS011;5377;43.276;26.930;2022-07-23T13:55:21;4.63;;;2.88;;
10657;SDS011;5377;43.276;26.930;2022-07-23T13:57:48;4.38;;;3.22;;
10657;SDS011;5377;43.276;26.930;2022-07-23T14:00:15;3.38;;;2.75;;
10657;SDS011;5377;43.276;26.930;2022-07-23T14:02:43;5.25;;;4.03;;
10657;SDS011;5377;43.276;26.930;2022-07-23T14:05:10;5.38;;;3.70;;
10657;SDS011;5377;43.276;26.930;2022-07-23T14:07:37;7.85;;;5.82;;
10657;SDS011;5377;43.276;26.930;2022-07-23T14:10:09;5.85;;;3.15;;
10657;SDS011;5377;43.276;26.930;2022-07-23T14:12:37;4.53;;;3.03;;
10657;SDS011;5377;43.276;26.930;2022-07-23T14:15:05;6.57;;;3.50;;
10657;SDS011;5377;43.276;26.930;2022-07-23T14:17:34;8.27;;;3.58;;
10657;SDS011;5377;43.276;26.930;2022-07-23T14:20:01;5.30;;;3.40;;
10657;SDS011;5377;43.276;26.930;2022-07-23T14:22:29;5.88;;;3.38;;
10657;SDS011;5377;43.276;26.930;2022-07-23T14:24:56;4.35;;;3.10;;
10657;SDS011;5377;43.276;26.930;2022-07-23T14:27:25;5.22;;;3.10;;
10657;SDS011;5377;43.276;26.930;2022-07-23T14:29:53;10.45;;;3.72;;
10657;SDS011;5377;43.276;26.930;2022-07-23T14:32:20;5.50;;;3.67;;
10657;SDS011;5377;43.276;26.930;2022-07-23T14:34:47;3.40;;;3.20;;
10657;SDS011;5377;43.276;26.930;2022-07-23T14:37:15;6.80;;;3.30;;
10657;SDS011;5377;43.276;26.930;2022-07-23T14:39:42;3.67;;;3.30;;
10657;SDS011;5377;43.276;26.930;2022-07-23T14:42:10;6.63;;;3.30;;
10657;SDS011;5377;43.276;26.930;2022-07-23T14:44:39;4.57;;;3.53;;
10657;SDS011;5377;43.276;26.930;2022-07-23T14:47:07;4.43;;;3.33;;
10657;SDS011;5377;43.276;26.930;2022-07-23T14:49:34;4.95;;;3.50;;
10657;SDS011;5377;43.276;26.930;2022-07-23T14:52:01;8.20;;;3.88;;
10657;SDS011;5377;43.276;26.930;2022-07-23T14:54:29;4.40;;;2.83;;
10657;SDS011;5377;43.276;26.930;2022-07-23T14:56:57;6.07;;;4.10;;
10657;SDS011;5377;43.276;26.930;2022-07-23T14:59:26;4.45;;;3.00;;
10657;SDS011;5377;43.276;26.930;2022-07-23T15:01:59;4.35;;;2.90;;
10657;SDS011;5377;43.276;26.930;2022-07-23T15:04:25;5.97;;;3.45;;
10657;SDS011;5377;43.276;26.930;2022-07-23T15:06:52;3.92;;;3.63;;
10657;SDS011;5377;43.276;26.930;2022-07-23T15:09:19;4.10;;;2.95;;
10657;SDS011;5377;43.276;26.930;2022-07-23T15:11:46;7.25;;;3.40;;